Time;durP1;ratioP1;P1;durP2;ratioP2;P2;SDS_P1;SDS_P2;PMS_P1;PMS_P2;Temp;Humidity;BMP_temperature;BMP_pressure;BME280_temperature;BME280_humidity;BME280_pressure;Samples;Min_cycle;Max_cycle;Signal;HPM_P1;HPM_P2
2023/06/12 00:02:17;;;;;;;9.67;8.97;;;22.30;14.20;;;;;;4994445;28;20236;-62
2023/06/12 00:04:44;;;;;;;10.40;9.80;;;22.30;14.30;;;;;;4995101;28;20424;-62
2023/06/12 00:07:11;;;;;;;10.97;10.07;;;22.30;14.20;;;;;;4994995;28;20475;-62
2023/06/12 00:09:37;;;;;;;9.97;9.10;;;22.30;14.30;;;;;;4994867;28;20431;-61
2023/06/12 00:12:03;;;;;;;10.37;9.57;;;22.20;14.30;;;;;;4994230;28;20421;-58
2023/06/12 00:14:28;;;;;;;10.70;10.00;;;22.20;14.20;;;;;;4994721;28;20417;-58
2023/06/12 00:16:54;;;;;;;9.90;9.30;;;22.20;14.40;;;;;;4994761;28;20910;-58
2023/06/12 00:19:20;;;;;;;10.20;9.50;;;22.20;14.20;;;;;;4995023;28;20178;-61
2023/06/12 00:21:46;;;;;;;10.17;9.57;;;22.20;14.20;;;;;;4994122;28;20208;-61
2023/06/12 00:24:12;;;;;;;9.40;8.80;;;22.20;14.30;;;;;;4994573;28;20910;-61
2023/06/12 00:26:38;;;;;;;10.27;9.60;;;22.10;14.10;;;;;;4994496;28;20217;-61
2023/06/12 00:29:03;;;;;;;11.00;10.40;;;22.10;13.90;;;;;;4994743;28;20178;-61
2023/06/12 00:31:30;;;;;;;9.27;8.77;;;22.20;13.80;;;;;;4993803;28;20480;-62
2023/06/12 00:33:55;;;;;;;10.43;9.73;;;22.20;13.80;;;;;;4994457;28;20596;-62
2023/06/12 00:36:22;;;;;;;11.43;9.80;;;22.10;14.10;;;;;;4994350;28;20456;-62
2023/06/12 00:38:48;;;;;;;10.30;9.70;;;22.10;14.10;;;;;;4994344;28;20186;-62
2023/06/12 00:41:13;;;;;;;11.00;10.30;;;22.10;13.80;;;;;;4993709;28;20499;-61
2023/06/12 00:43:39;;;;;;;9.77;9.07;;;22.10;13.50;;;;;;4994166;28;20178;-61
2023/06/12 00:46:06;;;;;;;10.10;9.60;;;22.00;13.70;;;;;;4994179;28;20222;-58
2023/06/12 00:48:32;;;;;;;10.20;9.50;;;22.00;13.80;;;;;;4993177;28;20182;-58
2023/06/12 00:50:59;;;;;;;10.63;9.93;;;22.00;13.70;;;;;;4994319;28;20456;-59
2023/06/12 00:53:25;;;;;;;10.50;9.83;;;22.00;13.80;;;;;;4994344;28;20425;-59
2023/06/12 00:55:51;;;;;;;10.47;9.83;;;22.00;13.90;;;;;;4995280;28;20428;-58
2023/06/12 00:58:17;;;;;;;10.23;9.60;;;22.00;14.20;;;;;;4994134;28;20417;-58
2023/06/12 01:00:43;;;;;;;10.30;9.73;;;22.00;14.40;;;;;;4993863;28;20194;-57
2023/06/12 01:03:12;;;;;;;10.60;9.93;;;22.00;14.20;;;;;;4993311;28;20185;-57
2023/06/12 01:05:42;;;;;;;9.73;9.13;;;21.90;14.40;;;;;;4993744;28;20553;-57
2023/06/12 01:08:38;;;;;;;9.87;9.17;;;21.90;14.30;;;;;;4993848;28;20425;-58
2023/06/12 01:11:08;;;;;;;10.33;9.67;;;21.90;14.30;;;;;;4993470;28;20841;-58
2023/06/12 01:13:34;;;;;;;10.27;9.67;;;21.90;14.40;;;;;;4993485;28;20508;-61
2023/06/12 01:16:00;;;;;;;9.50;8.90;;;21.90;14.30;;;;;;4993790;28;20956;-61
2023/06/12 01:18:26;;;;;;;9.50;8.90;;;21.80;14.30;;;;;;4993675;28;20488;-62
2023/06/12 01:20:58;;;;;;;9.00;8.50;;;21.80;14.30;;;;;;4993612;28;20890;-61
2023/06/12 01:23:36;;;;;;;9.37;8.70;;;21.80;14.30;;;;;;4993050;28;20846;-61
2023/06/12 01:26:25;;;;;;;9.43;8.87;;;21.80;14.30;;;;;;4993477;28;20468;-61
2023/06/12 01:29:21;;;;;;;10.17;9.63;;;21.70;14.20;;;;;;4993353;28;20432;-61
2023/06/12 01:32:07;;;;;;;10.30;9.70;;;21.70;14.20;;;;;;4994122;28;20409;-61
2023/06/12 01:34:38;;;;;;;9.93;9.43;;;21.70;14.20;;;;;;4993317;28;20421;-61
2023/06/12 01:37:15;;;;;;;9.40;9.00;;;21.70;14.20;;;;;;4993275;28;20941;-61
2023/06/12 01:39:45;;;;;;;10.30;9.67;;;21.70;14.20;;;;;;4994526;28;20439;-61
2023/06/12 01:42:12;;;;;;;10.40;9.80;;;21.80;14.30;;;;;;4992889;28;20440;-62
2023/06/12 01:44:37;;;;;;;9.10;8.60;;;21.80;14.30;;;;;;4993176;28;20431;-61
2023/06/12 01:47:03;;;;;;;11.17;10.47;;;21.80;14.30;;;;;;4993057;28;20465;-61
2023/06/12 01:49:29;;;;;;;10.40;9.90;;;21.80;14.90;;;;;;4992999;28;20201;-61
2023/06/12 01:51:54;;;;;;;10.20;9.50;;;21.80;14.30;;;;;;4992406;28;20493;-61
2023/06/12 01:54:22;;;;;;;9.23;8.47;;;21.80;14.70;;;;;;4992972;28;20182;-61
2023/06/12 01:56:49;;;;;;;9.53;8.97;;;21.70;14.20;;;;;;4992879;28;20276;-61
2023/06/12 01:59:15;;;;;;;9.47;8.87;;;21.70;14.50;;;;;;4992816;28;20425;-61
2023/06/12 02:01:41;;;;;;;10.57;9.97;;;21.60;14.60;;;;;;4992271;28;20422;-61
2023/06/12 02:04:06;;;;;;;9.77;9.17;;;21.60;14.70;;;;;;4992448;28;20248;-61
2023/06/12 02:06:32;;;;;;;10.10;9.40;;;21.70;14.60;;;;;;4992679;28;20222;-62
2023/06/12 02:08:57;;;;;;;10.77;10.17;;;21.60;14.60;;;;;;4992785;28;20182;-62
2023/06/12 02:11:23;;;;;;;10.40;9.80;;;21.60;14.80;;;;;;4992136;28;20597;-62
2023/06/12 02:13:49;;;;;;;9.60;9.10;;;21.60;14.80;;;;;;4994020;28;20178;-62
2023/06/12 02:16:20;;;;;;;10.80;9.80;;;21.30;15.40;;;;;;4992654;28;20334;-62
2023/06/12 02:18:46;;;;;;;10.60;9.70;;;21.00;16.10;;;;;;4992564;28;20190;-62
2023/06/12 02:21:12;;;;;;;12.07;11.17;;;20.90;16.40;;;;;;4993363;28;20412;-61
2023/06/12 02:23:38;;;;;;;10.17;9.47;;;20.90;16.60;;;;;;4992298;28;20428;-61
2023/06/12 02:26:03;;;;;;;10.33;9.83;;;21.00;16.40;;;;;;4992331;28;20577;-61
2023/06/12 02:28:29;;;;;;;10.20;9.70;;;21.10;16.50;;;;;;4992341;28;20277;-61
2023/06/12 02:30:55;;;;;;;12.57;11.17;;;21.00;16.50;;;;;;4992800;28;20209;-61
2023/06/12 02:33:22;;;;;;;11.70;11.00;;;21.00;16.80;;;;;;4992168;28;20762;-61
2023/06/12 02:35:47;;;;;;;10.83;10.10;;;20.90;16.80;;;;;;4992877;28;20272;-61
2023/06/12 02:38:13;;;;;;;10.87;10.27;;;20.90;16.80;;;;;;4993556;28;20444;-61
2023/06/12 02:40:39;;;;;;;11.37;10.70;;;20.80;17.20;;;;;;4992111;28;20201;-61
2023/06/12 02:43:04;;;;;;;11.00;10.50;;;20.70;17.50;;;;;;4991507;28;20648;-61
2023/06/12 02:45:30;;;;;;;10.50;9.90;;;20.50;17.80;;;;;;4991884;28;20546;-61
2023/06/12 02:47:56;;;;;;;10.87;10.27;;;20.40;17.70;;;;;;4991953;28;20174;-61
2023/06/12 02:50:21;;;;;;;11.57;10.87;;;20.40;18.10;;;;;;4991985;28;20592;-61
2023/06/12 02:52:48;;;;;;;11.27;10.67;;;20.50;18.00;;;;;;4991287;28;20186;-61
2023/06/12 02:55:14;;;;;;;10.80;10.30;;;20.60;17.80;;;;;;4991984;28;20181;-61
2023/06/12 02:57:39;;;;;;;10.87;9.97;;;20.70;17.40;;;;;;4991761;28;20948;-61
2023/06/12 03:00:06;;;;;;;10.70;10.20;;;20.80;17.60;;;;;;4991997;28;20186;-61
2023/06/12 03:02:31;;;;;;;10.53;9.97;;;20.80;17.40;;;;;;4992341;28;20178;-62
2023/06/12 03:04:59;;;;;;;10.87;10.27;;;20.90;17.30;;;;;;4991730;28;20490;-61
2023/06/12 03:07:26;;;;;;;11.43;10.63;;;20.90;17.40;;;;;;4991700;28;20216;-61
2023/06/12 03:09:52;;;;;;;11.90;11.30;;;21.00;17.40;;;;;;4991810;28;20421;-61
2023/06/12 03:12:18;;;;;;;10.70;10.00;;;20.90;17.50;;;;;;4990786;28;20516;-61
2023/06/12 03:14:44;;;;;;;11.90;11.30;;;20.70;17.90;;;;;;4991548;28;20202;-61
2023/06/12 03:17:10;;;;;;;10.37;9.77;;;20.50;18.30;;;;;;4991654;28;20657;-61
2023/06/12 03:19:35;;;;;;;10.70;10.20;;;20.30;18.80;;;;;;4991641;28;20417;-63
2023/06/12 03:22:01;;;;;;;11.23;10.63;;;20.20;19.10;;;;;;4991181;28;20812;-61
2023/06/12 03:24:29;;;;;;;11.50;10.80;;;20.20;19.10;;;;;;4991892;28;20181;-61
2023/06/12 03:26:55;;;;;;;11.27;10.67;;;20.30;19.00;;;;;;4991513;28;20209;-61
2023/06/12 03:29:20;;;;;;;12.00;11.20;;;20.40;18.80;;;;;;4991637;28;20425;-61
2023/06/12 03:31:46;;;;;;;11.37;10.63;;;20.50;18.80;;;;;;4991054;28;20413;-61
2023/06/12 03:34:12;;;;;;;10.00;9.50;;;20.50;18.80;;;;;;4991430;28;20256;-61
2023/06/12 03:36:38;;;;;;;11.30;10.63;;;20.60;18.80;;;;;;4991428;28;20417;-61
2023/06/12 03:39:04;;;;;;;11.00;10.40;;;20.70;18.80;;;;;;4991428;28;20185;-61
2023/06/12 03:41:31;;;;;;;11.13;10.53;;;20.70;18.70;;;;;;4990605;28;20536;-62
2023/06/12 03:43:58;;;;;;;11.20;10.57;;;20.40;19.10;;;;;;4991408;28;20508;-62
2023/06/12 03:46:23;;;;;;;10.87;10.10;;;20.20;19.60;;;;;;4991328;28;20464;-61
2023/06/12 03:48:49;;;;;;;11.73;10.83;;;20.00;19.90;;;;;;4991542;28;20778;-61
2023/06/12 03:51:15;;;;;;;11.47;10.77;;;19.90;20.30;;;;;;4974550;28;20215;-61
2023/06/12 03:53:40;;;;;;;12.10;11.40;;;19.80;20.40;;;;;;4991305;28;20209;-61
2023/06/12 03:56:07;;;;;;;11.20;10.60;;;19.70;20.90;;;;;;4991302;28;20534;-62
2023/06/12 03:58:33;;;;;;;11.03;10.30;;;19.70;21.00;;;;;;4991201;28;20680;-62
2023/06/12 04:00:59;;;;;;;11.33;10.73;;;19.70;20.70;;;;;;4991166;28;20429;-62
2023/06/12 04:03:25;;;;;;;11.47;10.70;;;19.70;20.70;;;;;;4990817;28;20920;-62
2023/06/12 04:05:51;;;;;;;11.43;10.73;;;19.80;20.90;;;;;;4991215;28;20209;-61
2023/06/12 04:08:17;;;;;;;12.30;11.70;;;19.90;20.60;;;;;;4991078;28;20417;-62
2023/06/12 04:10:44;;;;;;;12.77;11.90;;;20.00;20.30;;;;;;4991093;28;20420;-57
2023/06/12 04:13:10;;;;;;;12.10;11.40;;;20.20;20.20;;;;;;4990535;28;20417;-56
2023/06/12 04:15:38;;;;;;;12.30;11.70;;;20.30;20.30;;;;;;4991285;28;20425;-55
2023/06/12 04:18:05;;;;;;;13.00;12.33;;;20.40;20.40;;;;;;4991370;28;20423;-56
2023/06/12 04:20:32;;;;;;;13.50;12.60;;;20.40;20.30;;;;;;4991389;28;20425;-56
2023/06/12 04:23:04;;;;;;;12.80;12.17;;;20.50;20.00;;;;;;4990642;28;20922;-52
2023/06/12 04:25:30;;;;;;;13.60;12.90;;;20.50;19.80;;;;;;4994645;28;20910;-55
2023/06/12 04:27:56;;;;;;;13.73;12.77;;;20.50;19.80;;;;;;4994658;28;20425;-51
2023/06/12 04:30:23;;;;;;;12.40;11.60;;;20.60;20.00;;;;;;4994557;28;20909;-53
2023/06/12 04:32:48;;;;;;;13.87;13.17;;;20.60;19.90;;;;;;4993819;28;20475;-54
2023/06/12 04:35:19;;;;;;;14.07;13.27;;;20.60;19.80;;;;;;4994365;28;20413;-56
2023/06/12 04:37:48;;;;;;;14.47;13.67;;;20.70;19.70;;;;;;4994325;28;20186;-60
2023/06/12 04:40:14;;;;;;;14.00;13.20;;;20.70;19.50;;;;;;4994108;28;20940;-56
2023/06/12 04:42:43;;;;;;;13.80;12.93;;;20.70;19.60;;;;;;4993566;28;20768;-55
2023/06/12 04:45:12;;;;;;;14.20;13.30;;;20.80;19.30;;;;;;4994324;28;20430;-50
2023/06/12 04:47:38;;;;;;;13.07;12.10;;;20.80;18.90;;;;;;4994043;28;20491;-55
2023/06/12 04:50:06;;;;;;;14.07;13.17;;;20.80;18.90;;;;;;4994247;28;20548;-52
2023/06/12 04:52:34;;;;;;;12.40;11.80;;;20.80;18.90;;;;;;4993370;28;20421;-60
2023/06/12 04:55:00;;;;;;;13.57;12.50;;;20.80;19.20;;;;;;4994091;28;20413;-58
2023/06/12 04:57:27;;;;;;;13.77;12.97;;;20.80;19.30;;;;;;4994047;28;20417;-58
2023/06/12 04:59:52;;;;;;;15.07;13.90;;;20.80;19.70;;;;;;4993964;28;20432;-55
2023/06/12 05:02:18;;;;;;;14.00;13.10;;;20.80;19.40;;;;;;4993383;28;20421;-58
2023/06/12 05:04:44;;;;;;;12.63;11.83;;;20.80;19.50;;;;;;4992706;28;20547;-58
2023/06/12 05:07:16;;;;;;;13.80;13.10;;;20.90;19.70;;;;;;4993187;28;20264;-58
2023/06/12 05:09:43;;;;;;;13.60;12.70;;;20.90;19.50;;;;;;4993570;28;20186;-57
2023/06/12 05:12:11;;;;;;;13.27;12.60;;;20.90;19.50;;;;;;4992742;28;20453;-61
2023/06/12 05:14:42;;;;;;;14.70;13.80;;;20.90;19.70;;;;;;4993622;28;20665;-61
2023/06/12 05:17:09;;;;;;;13.73;13.03;;;21.00;19.50;;;;;;4993676;28;20509;-61
2023/06/12 05:19:36;;;;;;;13.97;13.07;;;21.00;19.80;;;;;;4973443;28;20477;-61
2023/06/12 05:22:02;;;;;;;16.00;15.00;;;21.00;19.90;;;;;;4973182;28;20609;-61
2023/06/12 05:24:28;;;;;;;17.40;13.37;;;21.00;19.90;;;;;;4973849;28;20433;-61
2023/06/12 05:26:53;;;;;;;14.60;13.70;;;21.10;19.80;;;;;;4973875;28;20985;-61
2023/06/12 05:29:19;;;;;;;12.63;11.83;;;21.00;19.60;;;;;;4973939;28;20179;-59
2023/06/12 05:31:45;;;;;;;13.77;12.77;;;20.90;19.40;;;;;;4973162;28;20668;-60
2023/06/12 05:34:11;;;;;;;14.30;13.30;;;20.90;19.90;;;;;;4973554;28;20179;-59
2023/06/12 05:36:37;;;;;;;14.33;13.53;;;20.90;20.00;;;;;;4973864;28;20182;-59
2023/06/12 05:39:04;;;;;;;15.40;14.20;;;20.90;20.00;;;;;;4973832;28;20302;-59
2023/06/12 05:41:30;;;;;;;13.10;12.23;;;21.00;20.00;;;;;;4972989;28;20248;-58
2023/06/12 05:43:55;;;;;;;13.70;13.00;;;21.10;20.00;;;;;;4973780;28;20509;-58
2023/06/12 05:46:21;;;;;;;13.83;12.97;;;21.10;19.60;;;;;;4973508;28;20208;-58
2023/06/12 05:48:47;;;;;;;14.37;13.37;;;21.10;19.70;;;;;;4974583;28;20175;-59
2023/06/12 05:51:13;;;;;;;13.63;12.93;;;21.10;19.50;;;;;;4973105;28;20631;-59
2023/06/12 05:53:39;;;;;;;11.50;10.90;;;21.10;19.40;;;;;;4973540;28;20418;-59
2023/06/12 05:56:05;;;;;;;13.50;12.70;;;21.10;19.60;;;;;;4973463;28;20189;-59
2023/06/12 05:58:31;;;;;;;12.80;12.20;;;21.20;19.40;;;;;;4973359;28;20590;-60
2023/06/12 06:00:56;;;;;;;13.73;12.93;;;21.20;19.50;;;;;;4973317;28;20433;-60
2023/06/12 06:03:24;;;;;;;12.70;11.90;;;21.20;19.40;;;;;;4971660;28;20258;-59
2023/06/12 06:05:50;;;;;;;18.03;14.60;;;21.20;19.30;;;;;;4973353;28;20245;-56
2023/06/12 06:08:16;;;;;;;14.40;13.40;;;21.20;19.00;;;;;;4989592;28;20421;-59
2023/06/12 06:10:42;;;;;;;13.80;13.00;;;21.10;19.20;;;;;;4973452;28;20178;-58
2023/06/12 06:13:08;;;;;;;12.90;12.27;;;21.10;19.40;;;;;;4972855;28;20234;-58
2023/06/12 06:15:34;;;;;;;13.47;12.57;;;21.10;19.20;;;;;;4973440;28;20178;-57
2023/06/12 06:17:59;;;;;;;14.10;13.30;;;21.00;19.40;;;;;;4973286;28;20473;-58
2023/06/12 06:20:26;;;;;;;14.10;13.30;;;21.00;19.60;;;;;;4973131;28;20189;-61
2023/06/12 06:22:52;;;;;;;13.77;12.70;;;21.00;19.50;;;;;;4972415;28;20227;-61
2023/06/12 06:25:18;;;;;;;14.17;13.47;;;21.10;20.00;;;;;;4972844;28;20429;-61
2023/06/12 06:27:44;;;;;;;15.00;14.20;;;21.20;20.00;;;;;;4972907;28;20618;-61
2023/06/12 06:30:10;;;;;;;14.40;13.70;;;21.30;19.60;;;;;;4972769;28;20418;-61
2023/06/12 06:32:36;;;;;;;13.87;13.13;;;21.30;19.70;;;;;;4972175;28;20229;-61
2023/06/12 06:35:02;;;;;;;14.90;13.80;;;21.30;19.60;;;;;;4972799;28;20644;-61
2023/06/12 06:37:28;;;;;;;15.03;14.13;;;21.30;19.80;;;;;;4972824;28;20638;-61
2023/06/12 06:39:54;;;;;;;15.07;14.00;;;21.40;19.40;;;;;;4972528;28;20462;-61
2023/06/12 06:42:20;;;;;;;14.97;14.17;;;21.30;19.70;;;;;;4972157;28;20193;-61
2023/06/12 06:44:45;;;;;;;14.50;13.77;;;21.40;20.00;;;;;;4972677;28;20285;-62
2023/06/12 06:47:11;;;;;;;14.70;13.90;;;21.50;20.10;;;;;;4971781;28;20348;-62
2023/06/12 06:49:37;;;;;;;15.00;13.90;;;21.60;19.40;;;;;;4972452;28;20267;-61
2023/06/12 06:52:04;;;;;;;13.80;13.00;;;21.60;19.40;;;;;;4972042;28;20257;-62
2023/06/12 06:54:30;;;;;;;14.70;13.90;;;21.60;19.00;;;;;;4973611;28;20565;-61
2023/06/12 06:56:56;;;;;;;13.20;12.60;;;21.70;19.30;;;;;;4972446;28;20512;-61
2023/06/12 06:59:22;;;;;;;12.67;12.07;;;21.70;18.70;;;;;;4972485;28;20227;-61
2023/06/12 07:01:48;;;;;;;13.07;11.93;;;21.80;18.80;;;;;;4973035;28;20957;-61
2023/06/12 07:04:14;;;;;;;13.50;12.73;;;21.90;19.10;;;;;;4972087;28;20505;-58
2023/06/12 07:06:40;;;;;;;13.07;12.20;;;22.00;19.00;;;;;;4972162;28;20551;-58
2023/06/12 07:09:06;;;;;;;13.00;12.40;;;22.10;18.30;;;;;;4972387;28;20183;-58
2023/06/12 07:11:31;;;;;;;13.37;12.53;;;22.20;17.20;;;;;;4971565;28;20658;-58
2023/06/12 07:13:58;;;;;;;12.07;11.33;;;22.40;16.80;;;;;;4972064;28;20197;-58
2023/06/12 07:16:24;;;;;;;14.60;13.80;;;22.50;16.90;;;;;;4972159;28;20550;-57
2023/06/12 07:18:49;;;;;;;13.37;12.47;;;22.60;16.60;;;;;;4972188;28;20426;-59
2023/06/12 07:21:15;;;;;;;13.47;12.73;;;22.70;16.50;;;;;;4972831;28;20558;-58
2023/06/12 07:23:41;;;;;;;11.97;11.20;;;22.70;16.30;;;;;;4972102;28;20189;-59
2023/06/12 07:26:06;;;;;;;12.20;11.20;;;22.70;16.10;;;;;;4972027;28;20202;-57
2023/06/12 07:28:32;;;;;;;12.13;11.43;;;22.70;16.20;;;;;;4972043;28;20221;-58
2023/06/12 07:30:58;;;;;;;12.37;11.70;;;22.80;15.90;;;;;;4971895;28;20187;-58
2023/06/12 07:33:23;;;;;;;11.97;11.13;;;22.90;15.90;;;;;;4971396;28;20178;-60
2023/06/12 07:35:49;;;;;;;13.80;13.00;;;22.90;15.90;;;;;;4967152;28;20309;-62
2023/06/12 07:38:15;;;;;;;11.80;11.10;;;23.00;15.70;;;;;;4969921;28;20603;-61
2023/06/12 07:40:40;;;;;;;12.20;11.13;;;23.10;15.80;;;;;;4970308;28;20210;-61
2023/06/12 07:43:06;;;;;;;12.37;11.40;;;23.10;15.20;;;;;;4987171;28;20182;-62
2023/06/12 07:45:32;;;;;;;11.80;10.80;;;23.20;15.30;;;;;;4987711;28;20276;-62
2023/06/12 07:47:57;;;;;;;13.80;12.90;;;23.30;15.30;;;;;;4989940;28;20684;-60
2023/06/12 07:50:24;;;;;;;13.20;12.10;;;23.40;14.80;;;;;;4988915;28;20186;-61
2023/06/12 07:52:51;;;;;;;13.20;12.50;;;23.40;14.90;;;;;;4989451;28;20187;-59
2023/06/12 07:55:16;;;;;;;13.80;12.83;;;23.40;14.60;;;;;;4989849;28;20483;-58
2023/06/12 07:57:42;;;;;;;13.97;12.90;;;23.40;15.10;;;;;;4990391;28;20432;-58
2023/06/12 08:00:08;;;;;;;13.20;12.40;;;23.40;14.40;;;;;;4993687;28;20192;-58
2023/06/12 08:02:34;;;;;;;13.47;12.43;;;23.50;14.00;;;;;;4992771;28;20182;-58
2023/06/12 08:05:00;;;;;;;12.27;11.57;;;23.60;14.40;;;;;;4993358;28;20429;-57
2023/06/12 08:07:27;;;;;;;14.97;13.27;;;23.60;13.60;;;;;;4993671;28;20241;-59
2023/06/12 08:09:53;;;;;;;13.27;12.27;;;23.70;13.70;;;;;;4993991;28;20401;-59
2023/06/12 08:12:19;;;;;;;13.27;12.57;;;23.80;13.40;;;;;;4993103;28;20429;-59
2023/06/12 08:14:47;;;;;;;13.87;13.07;;;23.90;12.90;;;;;;4993467;28;20178;-59
2023/06/12 08:17:13;;;;;;;12.87;12.17;;;23.90;12.40;;;;;;4993485;28;20428;-59
2023/06/12 08:19:41;;;;;;;13.90;13.10;;;24.00;13.00;;;;;;4990472;28;20836;-62
2023/06/12 08:22:11;;;;;;;14.10;13.10;;;24.10;14.60;;;;;;4992744;28;20530;-59
2023/06/12 08:24:38;;;;;;;13.70;12.87;;;24.10;14.90;;;;;;4993052;28;20943;-58
2023/06/12 08:27:04;;;;;;;13.27;12.37;;;24.00;14.70;;;;;;4993512;28;20460;-57
2023/06/12 08:29:30;;;;;;;13.80;12.90;;;24.10;12.70;;;;;;4993483;28;20427;-58
2023/06/12 08:31:55;;;;;;;14.10;13.30;;;24.20;11.90;;;;;;4993215;28;20214;-58
2023/06/12 08:34:25;;;;;;;12.33;11.73;;;24.30;11.20;;;;;;4993322;28;20237;-58
2023/06/12 08:36:53;;;;;;;12.80;12.10;;;24.20;10.60;;;;;;4995156;28;20181;-58
2023/06/12 08:39:19;;;;;;;13.10;12.30;;;24.20;10.60;;;;;;4993505;28;20421;-59
2023/06/12 08:42:09;;;;;;;12.57;11.73;;;24.20;11.50;;;;;;4992066;28;20466;-58
2023/06/12 08:44:35;;;;;;;12.63;11.73;;;24.40;11.80;;;;;;4985032;28;20228;-58
2023/06/12 08:47:03;;;;;;;12.37;11.60;;;24.30;11.60;;;;;;4990440;28;20519;-58
2023/06/12 08:49:30;;;;;;;12.33;11.63;;;24.40;10.40;;;;;;4992570;28;20421;-58
2023/06/12 08:51:56;;;;;;;12.23;11.50;;;24.30;9.50;;;;;;4992442;28;20996;-59
2023/06/12 08:54:22;;;;;;;12.57;11.87;;;24.30;8.90;;;;;;4992508;28;20425;-59
2023/06/12 08:56:48;;;;;;;13.37;12.60;;;24.40;9.00;;;;;;4993113;28;20883;-58
2023/06/12 08:59:15;;;;;;;12.70;11.90;;;24.40;8.90;;;;;;4993052;28;20265;-58
2023/06/12 09:01:41;;;;;;;12.20;11.50;;;24.50;8.50;;;;;;4991225;28;20439;-58
2023/06/12 09:04:14;;;;;;;13.20;12.40;;;24.50;8.40;;;;;;4992650;28;20475;-58
2023/06/12 09:06:42;;;;;;;12.40;11.70;;;24.70;8.30;;;;;;4992486;28;20461;-59
2023/06/12 09:09:08;;;;;;;12.60;11.90;;;24.80;8.30;;;;;;4991788;28;20424;-59
2023/06/12 09:11:37;;;;;;;12.00;11.30;;;24.80;8.80;;;;;;4991961;28;20409;-59
2023/06/12 09:14:03;;;;;;;16.23;13.27;;;24.90;8.70;;;;;;4991566;28;20646;-61
2023/06/12 09:16:29;;;;;;;11.63;10.83;;;24.80;8.40;;;;;;4991085;28;20784;-61
2023/06/12 09:18:56;;;;;;;11.73;11.03;;;24.80;7.50;;;;;;4990899;28;20413;-61
2023/06/12 09:21:23;;;;;;;12.40;11.50;;;24.90;7.50;;;;;;4990430;28;20190;-61
2023/06/12 09:23:55;;;;;;;12.07;11.37;;;24.80;8.10;;;;;;4991600;28;20787;-61
2023/06/12 09:26:22;;;;;;;13.40;12.70;;;24.80;8.00;;;;;;4991799;28;20526;-61
2023/06/12 09:28:53;;;;;;;11.83;11.13;;;24.90;7.90;;;;;;4992509;28;20413;-60
2023/06/12 09:31:19;;;;;;;12.27;11.57;;;24.90;7.50;;;;;;4992896;28;20421;-60
2023/06/12 09:33:45;;;;;;;11.90;10.70;;;24.90;7.40;;;;;;4993486;28;20943;-60
2023/06/12 09:36:12;;;;;;;12.80;11.70;;;25.00;7.50;;;;;;4993595;28;20433;-61
2023/06/12 09:38:38;;;;;;;13.27;12.33;;;25.20;7.30;;;;;;4993521;28;20182;-61
2023/06/12 09:41:06;;;;;;;12.30;11.70;;;25.20;6.20;;;;;;4993041;28;20448;-61
2023/06/12 09:43:32;;;;;;;13.03;12.13;;;25.20;6.10;;;;;;4992638;28;20511;-61
2023/06/12 09:46:02;;;;;;;12.30;11.23;;;25.30;6.70;;;;;;4991288;28;20941;-62
2023/06/12 09:48:38;;;;;;;12.00;11.30;;;25.40;6.30;;;;;;4991814;28;20491;-57
2023/06/12 09:51:06;;;;;;;12.57;11.67;;;25.50;6.20;;;;;;4992137;28;20417;-58
2023/06/12 09:53:36;;;;;;;12.90;12.10;;;25.50;6.40;;;;;;4993970;28;20447;-57
2023/06/12 09:56:07;;;;;;;12.97;12.17;;;25.70;6.00;;;;;;4991343;28;20432;-58
2023/06/12 09:58:38;;;;;;;12.97;12.10;;;25.60;5.80;;;;;;4991321;28;20564;-62
2023/06/12 10:01:07;;;;;;;12.53;11.93;;;25.60;6.40;;;;;;4992794;28;20422;-61
2023/06/12 10:03:36;;;;;;;11.73;11.07;;;25.60;6.10;;;;;;4992737;28;20421;-63
2023/06/12 10:06:03;;;;;;;13.07;12.37;;;25.70;5.10;;;;;;4992971;28;20456;-62
2023/06/12 10:08:30;;;;;;;12.27;11.57;;;25.80;5.20;;;;;;4993066;28;20441;-62
2023/06/12 10:10:55;;;;;;;13.80;13.00;;;25.90;5.80;;;;;;4992844;28;20468;-61
2023/06/12 10:13:22;;;;;;;13.57;12.70;;;26.10;5.30;;;;;;4992266;28;20413;-61
2023/06/12 10:15:49;;;;;;;12.60;11.80;;;26.00;5.20;;;;;;4992666;28;20202;-60
2023/06/12 10:18:17;;;;;;;13.43;12.63;;;26.10;4.90;;;;;;4993623;28;20492;-61
2023/06/12 10:20:44;;;;;;;12.10;11.30;;;26.10;4.80;;;;;;4991331;28;20855;-61
2023/06/12 10:23:10;;;;;;;12.20;11.60;;;26.20;5.30;;;;;;4991895;28;20507;-62
2023/06/12 10:25:36;;;;;;;12.77;12.07;;;26.40;4.60;;;;;;4992520;28;20425;-61
2023/06/12 10:28:02;;;;;;;11.90;11.30;;;26.40;4.20;;;;;;4992533;28;20901;-62
2023/06/12 10:30:28;;;;;;;12.47;11.77;;;26.30;4.20;;;;;;4992408;28;20901;-62
2023/06/12 10:32:54;;;;;;;12.07;11.17;;;26.20;4.40;;;;;;4992862;28;20413;-59
2023/06/12 10:35:30;;;;;;;12.70;12.00;;;26.10;4.70;;;;;;4992427;28;20662;-59
2023/06/12 10:37:56;;;;;;;11.20;10.60;;;26.10;4.70;;;;;;4991687;28;20421;-59
2023/06/12 10:40:23;;;;;;;11.20;10.60;;;26.30;3.60;;;;;;4991862;28;20507;-62
2023/06/12 10:42:52;;;;;;;12.33;11.53;;;26.40;3.70;;;;;;4991774;28;20208;-62
2023/06/12 10:45:22;;;;;;;12.53;11.83;;;26.40;3.70;;;;;;4992125;28;20412;-59
2023/06/12 10:48:06;;;;;;;12.60;11.90;;;26.40;3.70;;;;;;4992164;28;20472;-60
2023/06/12 10:50:33;;;;;;;12.80;12.10;;;26.50;3.40;;;;;;4992252;28;20413;-59
2023/06/12 10:53:07;;;;;;;12.70;12.10;;;26.70;3.50;;;;;;4991571;28;20417;-53
2023/06/12 10:55:37;;;;;;;12.83;12.13;;;26.70;3.80;;;;;;4992884;28;20734;-58
2023/06/12 10:58:04;;;;;;;12.53;11.83;;;26.60;3.50;;;;;;4987223;28;20434;-59
2023/06/12 11:00:44;;;;;;;12.30;11.60;;;26.60;3.30;;;;;;4989403;28;20425;-58
2023/06/12 11:03:12;;;;;;;11.37;10.77;;;26.70;3.40;;;;;;4991670;28;20448;-58
2023/06/12 11:05:49;;;;;;;13.47;12.67;;;26.70;2.40;;;;;;4990958;28;20793;-58
2023/06/12 11:08:15;;;;;;;12.27;11.67;;;26.80;2.70;;;;;;4990142;28;20475;-63
2023/06/12 11:10:41;;;;;;;12.20;11.50;;;26.80;2.60;;;;;;4990190;28;20461;-60
2023/06/12 11:13:07;;;;;;;13.20;12.30;;;26.90;2.20;;;;;;4990666;28;20413;-60
2023/06/12 11:15:41;;;;;;;13.60;12.80;;;26.90;2.80;;;;;;4991459;28;20463;-59
2023/06/12 11:18:08;;;;;;;12.23;11.63;;;26.90;3.20;;;;;;4991535;28;20224;-59
2023/06/12 11:20:34;;;;;;;12.37;11.67;;;26.90;3.00;;;;;;4991509;28;20900;-60
2023/06/12 11:23:01;;;;;;;12.93;12.13;;;26.90;2.90;;;;;;4990405;28;20535;-60
2023/06/12 11:25:46;;;;;;;12.07;11.37;;;26.90;3.00;;;;;;4989493;28;20421;-62
2023/06/12 11:28:13;;;;;;;11.87;11.27;;;26.90;2.80;;;;;;4989767;28;20437;-61
2023/06/12 11:30:42;;;;;;;12.30;11.57;;;26.90;3.00;;;;;;4990131;28;20409;-61
2023/06/12 11:33:10;;;;;;;12.30;11.40;;;26.90;2.70;;;;;;4993044;28;20804;-61
2023/06/12 11:35:43;;;;;;;11.77;11.03;;;26.90;2.60;;;;;;4996357;28;20408;-60
2023/06/12 11:38:14;;;;;;;13.00;12.10;;;26.80;2.40;;;;;;4996177;28;20413;-60
2023/06/12 11:40:41;;;;;;;10.40;9.80;;;26.60;2.30;;;;;;4996013;28;20468;-60
2023/06/12 11:43:06;;;;;;;12.07;11.23;;;26.60;1.80;;;;;;4996444;28;20829;-60
2023/06/12 11:45:32;;;;;;;12.27;11.33;;;26.70;1.90;;;;;;4997811;28;20470;-62
2023/06/12 11:47:59;;;;;;;11.33;10.60;;;26.70;1.70;;;;;;4997947;28;20202;-61
2023/06/12 11:50:26;;;;;;;11.80;11.00;;;26.60;2.20;;;;;;4997947;28;20536;-62
2023/06/12 11:52:52;;;;;;;11.77;11.07;;;26.50;2.00;;;;;;4997479;28;20427;-62
2023/06/12 11:55:21;;;;;;;11.20;10.70;;;26.40;1.00;;;;;;4997818;28;20460;-61
2023/06/12 11:57:48;;;;;;;11.13;10.53;;;26.40;1.30;;;;;;4997728;28;20472;-61
2023/06/12 12:00:20;;;;;;;11.57;10.80;;;26.40;1.80;;;;;;4997766;28;20415;-62
2023/06/12 12:02:49;;;;;;;10.70;10.20;;;26.40;1.80;;;;;;4997166;28;20424;-61
2023/06/12 12:05:20;;;;;;;11.57;10.97;;;26.30;2.20;;;;;;4997557;28;20478;-62
2023/06/12 12:07:59;;;;;;;11.30;10.60;;;26.40;1.60;;;;;;4997620;28;20496;-62
2023/06/12 12:10:26;;;;;;;14.63;11.27;;;26.60;1.00;;;;;;4997671;28;20420;-59
2023/06/12 12:12:59;;;;;;;12.00;11.20;;;26.70;1.00;;;;;;4997082;28;20419;-61
2023/06/12 12:15:35;;;;;;;11.80;11.20;;;26.80;1.00;;;;;;4997655;28;20504;-59
2023/06/12 12:18:01;;;;;;;12.03;11.23;;;26.80;1.10;;;;;;4997642;28;20420;-60
2023/06/12 12:20:29;;;;;;;12.20;11.40;;;26.70;1.20;;;;;;4997471;28;20416;-60
2023/06/12 12:22:59;;;;;;;10.47;9.87;;;26.90;1.30;;;;;;4996987;28;20182;-60
2023/06/12 12:25:28;;;;;;;12.43;11.63;;;26.90;1.00;;;;;;4997467;28;20797;-59
2023/06/12 12:27:55;;;;;;;11.23;10.50;;;26.90;1.00;;;;;;4997393;28;20492;-60
2023/06/12 12:30:22;;;;;;;10.90;10.10;;;27.10;1.00;;;;;;4997522;28;20417;-59
2023/06/12 12:32:49;;;;;;;11.40;10.70;;;27.10;1.00;;;;;;4996943;28;20409;-59
2023/06/12 12:35:16;;;;;;;10.60;10.00;;;27.30;1.00;;;;;;4997658;28;20445;-60